createdAt,value
2022-12-17T00:01:32.539Z,1.30
2022-12-17T00:06:57.009Z,1.30
2022-12-17T00:12:21.618Z,1.40
2022-12-17T00:17:46.249Z,1.30
2022-12-17T00:23:20.326Z,1.40
2022-12-17T00:28:44.829Z,1.30
2022-12-17T00:34:09.005Z,1.30
2022-12-17T00:39:34.404Z,1.30
2022-12-17T00:44:58.944Z,1.20
2022-12-17T00:50:23.437Z,1.20
2022-12-17T00:55:48.010Z,1.30
2022-12-17T01:01:13.878Z,1.30
2022-12-17T01:06:38.378Z,1.30
2022-12-17T01:12:02.519Z,1.30
2022-12-17T01:17:26.727Z,1.30
2022-12-17T01:22:51.734Z,1.20
2022-12-17T01:28:16.103Z,1.30
2022-12-17T01:33:40.192Z,1.30
2022-12-17T01:39:03.801Z,1.30
2022-12-17T01:45:04.908Z,1.30
2022-12-17T01:50:30.496Z,1.30
2022-12-17T01:55:55.098Z,1.30
2022-12-17T02:01:19.812Z,1.30
2022-12-17T02:06:47.005Z,1.30
2022-12-17T02:12:25.093Z,1.30
2022-12-17T02:18:08.936Z,1.30
2022-12-17T02:24:04.669Z,1.30
2022-12-17T02:29:28.176Z,1.20
2022-12-17T02:34:53.473Z,1.20
2022-12-17T02:40:17.940Z,1.30
2022-12-17T02:45:42.840Z,1.30
2022-12-17T02:51:08.051Z,1.20
2022-12-17T02:56:32.375Z,1.20
2022-12-17T03:01:56.700Z,1.20
2022-12-17T03:07:20.974Z,1.20
2022-12-17T03:12:45.141Z,1.00
2022-12-17T03:18:09.309Z,1.10
2022-12-17T03:23:33.628Z,1.00
2022-12-17T03:28:59.139Z,1.00
2022-12-17T03:34:23.451Z,1.00
2022-12-17T03:39:46.644Z,0.80
2022-12-17T03:45:10.304Z,0.80
2022-12-17T03:50:34.757Z,0.90
2022-12-17T03:55:59.233Z,0.90
2022-12-17T04:01:24.019Z,0.90
2022-12-17T04:06:49.224Z,0.90
2022-12-17T04:12:13.579Z,0.90
2022-12-17T04:17:37.655Z,0.90
2022-12-17T04:23:01.936Z,0.80
2022-12-17T04:28:26.021Z,0.80
2022-12-17T04:33:49.824Z,0.90
2022-12-17T04:39:13.810Z,0.90
2022-12-17T04:44:37.061Z,0.80
2022-12-17T04:50:00.771Z,0.90
2022-12-17T04:55:25.592Z,0.80
2022-12-17T05:00:50.124Z,0.80
2022-12-17T05:06:14.348Z,0.80
2022-12-17T05:11:37.649Z,0.80
2022-12-17T05:17:02.344Z,0.80
2022-12-17T05:22:26.444Z,0.70
2022-12-17T05:27:50.564Z,0.80
2022-12-17T05:33:21.602Z,0.70
2022-12-17T05:38:45.966Z,0.60
2022-12-17T05:44:10.361Z,0.80
2022-12-17T05:49:34.466Z,0.80
2022-12-17T05:54:58.550Z,0.70
2022-12-17T06:00:23.939Z,0.60
2022-12-17T06:05:48.314Z,0.70
2022-12-17T06:11:12.855Z,0.60
2022-12-17T06:16:37.007Z,0.70
2022-12-17T06:22:02.510Z,0.80
2022-12-17T06:27:27.010Z,0.80
2022-12-17T06:32:51.602Z,0.70
2022-12-17T06:38:25.110Z,0.80
2022-12-17T06:43:49.166Z,0.80
2022-12-17T06:49:13.062Z,0.70
2022-12-17T06:54:37.685Z,0.80
2022-12-17T07:00:02.272Z,0.80
2022-12-17T07:05:27.461Z,0.70
2022-12-17T07:10:51.611Z,0.80
2022-12-17T07:16:16.681Z,0.80
2022-12-17T07:21:28.001Z,0.70
2022-12-17T07:26:52.553Z,0.80
2022-12-17T07:32:16.694Z,0.70
2022-12-17T07:37:40.482Z,0.80
2022-12-17T07:43:04.847Z,0.90
2022-12-17T07:48:29.668Z,0.90
2022-12-17T07:53:44.245Z,1.00
2022-12-17T07:59:08.447Z,1.00
2022-12-17T08:04:24.800Z,0.90
2022-12-17T08:09:49.081Z,0.90
2022-12-17T08:15:13.240Z,0.90
2022-12-17T08:20:37.374Z,1.00
2022-12-17T08:26:01.892Z,0.90
2022-12-17T08:31:26.140Z,0.80
2022-12-17T08:36:49.431Z,0.90
2022-12-17T08:42:13.188Z,0.80
2022-12-17T08:47:37.356Z,0.80
2022-12-17T08:53:01.588Z,0.80
2022-12-17T08:58:26.684Z,0.80
2022-12-17T09:03:50.818Z,0.70
2022-12-17T09:09:13.958Z,0.80
2022-12-17T09:14:38.123Z,0.80
2022-12-17T09:20:02.705Z,0.90
2022-12-17T09:25:27.165Z,0.90
2022-12-17T09:30:52.889Z,1.20
2022-12-17T09:36:17.472Z,1.20
2022-12-17T09:41:48.561Z,1.20
2022-12-17T09:47:25.802Z,1.20
2022-12-17T09:52:54.341Z,1.20
2022-12-17T09:58:19.812Z,1.10
2022-12-17T10:03:44.414Z,1.20
2022-12-17T10:09:12.865Z,1.20
2022-12-17T10:14:43.331Z,1.30
2022-12-17T10:20:11.005Z,1.30
2022-12-17T10:25:41.824Z,1.30
2022-12-17T10:31:08.255Z,1.30
2022-12-17T10:36:44.557Z,1.40
2022-12-17T10:42:09.306Z,1.40
2022-12-17T10:47:37.030Z,1.50
2022-12-17T10:53:04.924Z,1.50
2022-12-17T10:58:41.945Z,1.60
2022-12-17T11:04:17.078Z,1.50
2022-12-17T11:10:10.213Z,1.50
2022-12-17T11:15:47.651Z,1.50
2022-12-17T11:21:19.918Z,1.50
2022-12-17T11:26:46.690Z,1.20
2022-12-17T11:32:50.106Z,1.00
2022-12-17T11:38:58.594Z,0.90
2022-12-17T11:44:39.479Z,1.00
2022-12-17T11:50:20.137Z,1.10
2022-12-17T11:56:17.360Z,0.80
2022-12-17T12:01:49.217Z,0.60
2022-12-17T12:07:52.348Z,0.40
2022-12-17T12:13:36.160Z,0.70
2022-12-17T12:19:10.423Z,0.30
2022-12-17T12:25:10.701Z,0.20
2022-12-17T12:30:41.356Z,0.00
2022-12-17T12:36:06.078Z,0.20
2022-12-17T12:41:55.605Z,0.40
2022-12-17T12:47:24.555Z,0.50
2022-12-17T12:52:51.138Z,0.50
2022-12-17T12:58:24.988Z,0.60
2022-12-17T13:03:56.555Z,1.00
2022-12-17T13:09:22.359Z,0.90
2022-12-17T13:14:59.225Z,0.90
2022-12-17T13:20:28.442Z,0.70
2022-12-17T13:25:35.553Z,0.60
2022-12-17T13:30:42.466Z,0.50
2022-12-17T13:36:11.444Z,0.40
2022-12-17T13:41:21.789Z,0.50
2022-12-17T13:46:33.161Z,0.20
2022-12-17T13:51:42.362Z,0.20
2022-12-17T13:56:49.962Z,0.10
2022-12-17T14:01:57.423Z,0.30
2022-12-17T14:07:07.218Z,0.20
2022-12-17T14:12:23.004Z,0.20
2022-12-17T14:17:45.824Z,0.00
2022-12-17T14:23:00.002Z,0.00
2022-12-17T14:28:37.798Z,-0.10
2022-12-17T14:33:47.358Z,-0.10
2022-12-17T14:39:04.009Z,-0.20
2022-12-17T14:44:24.380Z,-0.30
2022-12-17T14:49:31.579Z,-0.30
2022-12-17T14:54:47.370Z,-0.20
2022-12-17T14:59:54.195Z,-0.30
2022-12-17T15:05:03.915Z,-0.50
2022-12-17T15:10:17.819Z,-0.60
2022-12-17T15:15:24.737Z,-0.80
2022-12-17T15:20:31.938Z,-0.90
2022-12-17T15:25:43.722Z,-0.90
2022-12-17T15:30:48.644Z,-1.00
2022-12-17T15:35:55.539Z,-1.20
2022-12-17T15:41:21.640Z,-1.10
2022-12-17T15:46:30.167Z,-1.10
2022-12-17T15:51:37.360Z,-1.10
2022-12-17T15:56:44.429Z,-1.00
2022-12-17T16:01:51.921Z,-0.90
2022-12-17T16:06:58.732Z,-0.90
2022-12-17T16:12:06.063Z,-1.00
2022-12-17T16:17:13.157Z,-0.90
2022-12-17T16:22:19.952Z,-1.00
2022-12-17T16:27:26.822Z,-1.00
2022-12-17T16:32:36.617Z,-1.00
2022-12-17T16:37:42.765Z,-1.20
2022-12-17T16:42:49.584Z,-1.10
2022-12-17T16:47:56.426Z,-1.10
2022-12-17T16:53:03.212Z,-1.10
2022-12-17T16:58:10.081Z,-1.10
2022-12-17T17:03:20.849Z,-1.10
2022-12-17T17:08:28.431Z,-1.10
2022-12-17T17:13:35.750Z,-1.20
2022-12-17T17:18:43.089Z,-1.30
2022-12-17T17:23:53.986Z,-1.30
2022-12-17T17:29:03.272Z,-1.40
2022-12-17T17:34:15.734Z,-1.40
2022-12-17T17:39:22.576Z,-1.40
2022-12-17T17:44:29.780Z,-1.40
2022-12-17T17:49:37.009Z,-1.40
2022-12-17T17:54:44.202Z,-1.60
2022-12-17T17:59:51.369Z,-1.50
2022-12-17T18:05:00.966Z,-1.60
2022-12-17T18:10:09.379Z,-1.60
2022-12-17T18:15:18.026Z,-1.80
2022-12-17T18:20:24.755Z,-1.90
2022-12-17T18:25:37.325Z,-2.00
2022-12-17T18:30:41.220Z,-2.00
2022-12-17T18:35:48.050Z,-2.00
2022-12-17T18:40:55.131Z,-2.00
2022-12-17T18:46:05.247Z,-2.00
2022-12-17T18:51:11.940Z,-2.10
2022-12-17T18:56:37.998Z,-2.20
2022-12-17T19:01:33.836Z,-2.40
2022-12-17T19:06:43.539Z,-2.50
2022-12-17T19:11:51.523Z,-2.40
2022-12-17T19:16:59.147Z,-2.40
2022-12-17T19:22:06.537Z,-2.40
2022-12-17T19:27:13.236Z,-2.40
2022-12-17T19:32:21.322Z,-2.40
2022-12-17T19:37:28.168Z,-2.50
2022-12-17T19:42:37.430Z,-2.60
2022-12-17T19:47:43.306Z,-2.40
2022-12-17T19:52:50.390Z,-2.50
2022-12-17T19:57:57.093Z,-2.70
2022-12-17T20:03:04.111Z,-2.80
2022-12-17T20:08:10.935Z,-2.80
2022-12-17T20:13:17.801Z,-2.90
2022-12-17T20:18:24.564Z,-2.80
2022-12-17T20:23:31.231Z,-2.80
2022-12-17T20:28:38.911Z,-2.80
2022-12-17T20:33:46.395Z,-2.90
2022-12-17T20:38:53.085Z,-2.90
2022-12-17T20:44:02.038Z,-3.00
2022-12-17T20:49:09.533Z,-2.90
2022-12-17T20:54:16.190Z,-2.90
2022-12-17T20:59:23.266Z,-3.00
2022-12-17T21:04:30.438Z,-3.00
2022-12-17T21:09:37.718Z,-3.00
2022-12-17T21:14:44.388Z,-3.10
2022-12-17T21:19:51.113Z,-3.10
2022-12-17T21:24:58.269Z,-3.00
2022-12-17T21:30:05.995Z,-3.00
2022-12-17T21:35:16.145Z,-3.10
2022-12-17T21:40:24.357Z,-3.00
2022-12-17T21:45:38.338Z,-3.30
2022-12-17T21:50:46.676Z,-3.30
2022-12-17T21:56:04.713Z,-3.10
2022-12-17T22:01:25.440Z,-3.10
2022-12-17T22:06:37.287Z,-3.20
2022-12-17T22:11:44.665Z,-3.20
2022-12-17T22:16:51.842Z,-3.20
2022-12-17T22:21:58.538Z,-3.20
2022-12-17T22:27:09.524Z,-3.20
2022-12-17T22:32:32.440Z,-3.10
2022-12-17T22:39:56.685Z,-3.30
2022-12-17T22:44:41.942Z,-3.30
2022-12-17T22:48:15.378Z,-3.30
2022-12-17T22:53:22.259Z,-3.20
2022-12-17T22:58:29.051Z,-3.40
2022-12-17T23:03:37.367Z,-3.50
2022-12-17T23:08:45.540Z,-3.40
2022-12-17T23:13:53.279Z,-3.50
2022-12-17T23:19:03.056Z,-3.50
2022-12-17T23:24:10.885Z,-3.60
2022-12-17T23:29:19.788Z,-3.70
2022-12-17T23:34:26.443Z,-3.40
2022-12-17T23:39:35.108Z,-3.50
2022-12-17T23:44:42.262Z,-3.50
2022-12-17T23:49:49.157Z,-3.50
2022-12-17T23:54:56.276Z,-3.50
